Time;durP1;ratioP1;P1;durP2;ratioP2;P2;SDS_P1;SDS_P2;PMS_P1;PMS_P2;Temp;Humidity;BMP_temperature;BMP_pressure;BME280_temperature;BME280_humidity;BME280_pressure;Samples;Min_cycle;Max_cycle;Signal;HPM_P1;HPM_P2
2021/06/05 00:01:07;;;;;;;7.93;7.20;;;;;;;25.00;50.20;100094.25;4998865;28;20490;-85
2021/06/05 00:03:34;;;;;;;10.68;6.90;;;;;;;24.96;49.78;100086.50;4998659;28;20080;-85
2021/06/05 00:06:01;;;;;;;7.15;6.45;;;;;;;24.93;49.81;100091.41;5002162;28;20049;-84
2021/06/05 00:08:35;;;;;;;8.40;7.18;;;;;;;24.87;50.33;100089.41;5018060;28;20057;-84
2021/06/05 00:11:05;;;;;;;10.25;7.18;;;;;;;24.86;50.57;100088.59;5018169;28;20053;-85
2021/06/05 00:13:46;;;;;;;8.07;7.28;;;;;;;24.79;50.69;100091.09;5018288;28;20404;-84
2021/06/05 00:16:19;;;;;;;7.60;6.80;;;;;;;24.79;50.73;100085.72;5018164;28;20053;-84
2021/06/05 00:18:47;;;;;;;;;;;;;;;24.78;49.59;100091.25;5018710;28;20068;-85
2021/06/05 00:21:17;;;;;;;7.80;5.90;;;;;;;24.82;50.72;100093.41;5004616;28;19929;-85
2021/06/05 00:23:44;;;;;;;7.35;5.80;;;;;;;24.80;50.69;100084.69;4998047;28;20058;-85
2021/06/05 00:26:11;;;;;;;7.95;7.03;;;;;;;24.79;51.10;100090.25;4998063;28;20053;-85
2021/06/05 00:28:38;;;;;;;9.88;7.18;;;;;;;24.79;51.27;100095.63;4998397;28;20479;-85
2021/06/05 00:31:05;;;;;;;9.05;7.72;;;;;;;24.77;51.61;100093.09;4998120;28;20058;-85
2021/06/05 00:33:33;;;;;;;8.10;6.63;;;;;;;24.76;51.17;100094.13;4998353;28;20058;-85
2021/06/05 00:36:01;;;;;;;7.95;7.15;;;;;;;24.74;51.52;100090.75;5016276;28;20140;-85
2021/06/05 00:38:28;;;;;;;10.80;6.90;;;;;;;24.75;51.79;100097.00;4997928;28;20049;-85
2021/06/05 00:40:57;;;;;;;8.63;7.18;;;;;;;24.73;51.99;100092.63;4997973;28;20057;-85
2021/06/05 00:43:27;;;;;;;8.13;6.75;;;;;;;24.73;52.12;100089.06;4997942;28;20050;-84
2021/06/05 00:45:55;;;;;;;8.55;6.82;;;;;;;24.72;52.06;100092.78;4996919;28;20457;-84
2021/06/05 00:48:23;;;;;;;9.07;6.63;;;;;;;24.69;52.04;100099.34;4997730;28;20054;-85
2021/06/05 00:50:54;;;;;;;8.65;7.18;;;;;;;24.64;52.19;100098.19;4997920;28;20053;-85
2021/06/05 00:53:24;;;;;;;7.00;6.25;;;;;;;24.60;52.29;100101.22;4999042;28;20057;-85
2021/06/05 00:55:54;;;;;;;10.07;6.80;;;;;;;24.56;52.47;100091.81;4997989;28;20061;-85
2021/06/05 00:58:22;;;;;;;8.00;7.13;;;;;;;24.53;53.08;100091.31;4997514;28;20060;-85
2021/06/05 01:00:55;;;;;;;10.70;7.78;;;;;;;24.50;53.17;100094.34;4997714;28;20482;-85
2021/06/05 01:03:22;;;;;;;;;;;;;;;24.48;51.75;100091.81;4998166;28;20470;-85
2021/06/05 01:06:05;;;;;;;8.80;7.50;;;;;;;24.50;52.44;100095.19;4997197;28;19921;-85
2021/06/05 01:08:31;;;;;;;8.48;7.57;;;;;;;24.51;52.58;100096.88;4997262;28;20064;-85
2021/06/05 01:11:16;;;;;;;8.60;7.70;;;;;;;24.45;52.55;100092.19;4998481;28;20056;-84
2021/06/05 01:14:06;;;;;;;11.50;8.43;;;;;;;24.47;53.40;100103.59;4997224;28;20050;-85
2021/06/05 01:16:35;;;;;;;10.45;8.10;;;;;;;24.48;53.22;100099.88;4997668;28;20405;-84
2021/06/05 01:19:07;;;;;;;10.50;7.65;;;;;;;24.47;53.54;100098.22;4997262;28;20065;-85
2021/06/05 01:22:08;;;;;;;10.88;7.90;;;;;;;24.45;53.98;100100.25;4997492;28;20478;-85
2021/06/05 01:24:44;;;;;;;9.95;7.15;;;;;;;24.46;53.88;100101.94;4996869;28;20063;-85
2021/06/05 01:27:15;;;;;;;9.60;8.20;;;;;;;24.44;53.81;100099.41;5009019;28;20053;-85
2021/06/05 01:29:48;;;;;;;11.82;8.13;;;;;;;24.43;53.71;100103.09;5016488;28;20045;-85
2021/06/05 01:32:15;;;;;;;11.45;8.85;;;;;;;24.43;53.63;100094.19;5016818;28;20421;-85
2021/06/05 01:34:45;;;;;;;8.98;7.97;;;;;;;24.41;53.90;100082.78;5016403;28;20489;-85
2021/06/05 01:37:15;;;;;;;12.07;8.88;;;;;;;24.41;53.68;100083.59;5016827;28;20402;-85
2021/06/05 01:39:45;;;;;;;10.02;8.30;;;;;;;24.41;53.97;100083.59;5016780;28;20067;-85
2021/06/05 01:42:19;;;;;;;9.68;8.50;;;;;;;24.40;54.32;100078.41;5016063;28;20049;-85
2021/06/05 01:44:56;;;;;;;9.68;8.07;;;;;;;24.37;55.01;100073.34;4972861;28;20381;-85
2021/06/05 01:47:29;;;;;;;15.98;8.55;;;;;;;24.38;54.65;100075.88;4957024;28;20061;-85
2021/06/05 01:49:56;;;;;;;7.60;6.75;;;;;;;24.39;53.86;100077.56;4956810;28;20051;-84
2021/06/05 01:52:27;;;;;;;14.07;8.02;;;;;;;24.37;54.46;100076.03;4956416;28;20484;-85
2021/06/05 01:55:20;;;;;;;9.00;7.75;;;;;;;24.31;54.00;100078.41;4972623;28;20063;-85
2021/06/05 01:57:52;;;;;;;8.27;7.35;;;;;;;24.34;54.14;100080.75;4956577;28;20050;-84
2021/06/05 02:00:28;;;;;;;9.98;8.63;;;;;;;24.32;54.09;100087.31;4971056;28;20059;-84
2021/06/05 02:02:56;;;;;;;11.00;9.00;;;;;;;24.25;53.28;100079.06;4955008;28;20058;-84
2021/06/05 02:05:29;;;;;;;12.35;9.30;;;;;;;24.15;54.09;100083.81;4972487;28;20481;-84
2021/06/05 02:07:56;;;;;;;11.68;9.60;;;;;;;24.06;53.98;100080.22;4956780;28;20066;-84
2021/06/05 02:10:26;;;;;;;10.68;8.43;;;;;;;23.95;54.22;100082.25;5010618;28;20060;-85
2021/06/05 02:12:55;;;;;;;11.70;8.25;;;;;;;23.86;54.38;100077.88;5015806;28;20056;-85
2021/06/05 02:16:11;;;;;;;9.77;8.25;;;;;;;23.72;54.68;100076.69;5016044;28;20057;-85
2021/06/05 02:18:44;;;;;;;10.00;8.43;;;;;;;23.70;55.47;100076.03;4990990;28;20049;-85
2021/06/05 02:21:16;;;;;;;9.55;8.38;;;;;;;23.67;55.28;100074.50;5032580;28;20064;-84
2021/06/05 02:23:45;;;;;;;10.65;8.68;;;;;;;23.67;55.12;100070.97;5015152;28;20053;-85
2021/06/05 02:26:19;;;;;;;11.18;8.77;;;;;;;23.66;56.00;100067.44;5015679;28;20482;-84
2021/06/05 02:28:50;;;;;;;9.13;8.23;;;;;;;23.68;55.94;100065.44;5015579;28;20057;-84
2021/06/05 02:31:18;;;;;;;10.05;9.05;;;;;;;23.71;55.73;100066.97;5015574;28;20049;-84
2021/06/05 02:33:46;;;;;;;11.65;10.55;;;;;;;23.71;55.34;100060.72;5002279;28;20062;-85
2021/06/05 02:36:14;;;;;;;14.10;11.23;;;;;;;23.69;55.44;100067.13;4996138;28;20500;-85
2021/06/05 02:38:45;;;;;;;14.32;10.88;;;;;;;23.66;55.80;100063.94;4995743;28;20054;-84
2021/06/05 02:41:23;;;;;;;12.18;10.63;;;;;;;23.57;56.36;100055.00;4995947;28;20058;-84
2021/06/05 02:43:55;;;;;;;15.05;10.00;;;;;;;23.53;56.06;100067.94;4995905;28;20058;-85
2021/06/05 02:46:38;;;;;;;15.13;11.82;;;;;;;23.43;56.28;100059.16;4995871;28;20046;-84
2021/06/05 02:49:33;;;;;;;13.68;11.20;;;;;;;23.37;56.75;100055.31;5000043;28;20484;-84
2021/06/05 02:52:29;;;;;;;13.90;11.48;;;;;;;23.35;56.55;100053.78;5015657;28;20061;-84
2021/06/05 02:55:03;;;;;;;15.02;12.27;;;;;;;23.27;57.07;100059.94;5005739;28;20053;-85
2021/06/05 02:57:30;;;;;;;15.63;11.98;;;;;;;23.22;56.53;100052.41;5015453;28;20063;-85
2021/06/05 03:00:32;;;;;;;14.60;12.93;;;;;;;23.14;57.22;100053.19;4952596;29;20090;-84
2021/06/05 03:03:00;;;;;;;17.92;13.57;;;;;;;23.11;57.01;100044.63;4952509;29;20047;-84
2021/06/05 03:05:29;;;;;;;15.88;14.38;;;;;;;23.04;57.39;100047.13;4952335;29;20535;-84
2021/06/05 03:07:56;;;;;;;15.30;13.75;;;;;;;22.98;57.15;100043.22;4953390;28;20057;-84
2021/06/05 03:10:25;;;;;;;16.42;13.88;;;;;;;22.93;58.00;100047.41;4942587;29;20555;-85
2021/06/05 03:13:03;;;;;;;17.38;15.48;;;;;;;22.84;59.04;100054.59;4937176;29;20051;-84
2021/06/05 03:15:30;;;;;;;19.67;15.23;;;;;;;22.82;58.27;100052.06;4937294;29;20071;-81
2021/06/05 03:17:59;;;;;;;18.60;15.50;;;;;;;22.74;58.35;100046.66;4958446;28;20050;-82
2021/06/05 03:20:33;;;;;;;18.48;16.27;;;;;;;22.68;58.76;100040.09;4999635;28;20054;-81
2021/06/05 03:23:00;;;;;;;17.92;15.70;;;;;;;22.64;58.94;100038.72;4997125;28;20054;-81
2021/06/05 03:25:28;;;;;;;16.65;14.95;;;;;;;22.60;58.83;100045.41;5004377;28;20079;-81
2021/06/05 03:27:57;;;;;;;16.75;14.73;;;;;;;22.56;58.90;100042.22;5019050;28;20060;-82
2021/06/05 03:30:26;;;;;;;17.85;15.02;;;;;;;22.52;59.27;100049.72;5019009;28;20053;-81
2021/06/05 03:33:03;;;;;;;19.45;15.85;;;;;;;22.47;60.07;100045.81;5018866;28;20486;-81
2021/06/05 03:35:30;;;;;;;18.13;14.95;;;;;;;22.48;59.51;100040.31;5018550;28;20060;-81
2021/06/05 03:37:57;;;;;;;16.60;14.85;;;;;;;22.47;59.68;100043.13;5018985;28;20481;-81
2021/06/05 03:40:34;;;;;;;18.52;15.25;;;;;;;22.43;60.41;100050.63;5018831;28;20072;-82
2021/06/05 03:43:01;;;;;;;18.60;15.77;;;;;;;22.47;59.90;100037.78;5034642;28;20059;-81
2021/06/05 03:45:29;;;;;;;18.23;15.90;;;;;;;22.50;59.96;100048.19;5010531;28;20058;-81
2021/06/05 03:47:56;;;;;;;17.67;15.40;;;;;;;22.51;60.01;100048.00;4999054;28;20064;-81
2021/06/05 03:50:28;;;;;;;17.48;15.27;;;;;;;22.52;60.45;100052.41;4998907;28;20056;-81
2021/06/05 03:52:55;;;;;;;20.47;15.97;;;;;;;22.56;60.01;100044.03;4999067;28;20049;-81
2021/06/05 03:55:27;;;;;;;18.30;16.25;;;;;;;22.56;60.48;100044.03;4999039;28;20410;-81
2021/06/05 03:57:59;;;;;;;18.85;16.60;;;;;;;22.58;59.97;100047.41;4998675;28;20054;-81
2021/06/05 04:00:30;;;;;;;18.38;16.50;;;;;;;22.58;60.80;100050.09;5014373;28;20140;-81
2021/06/05 04:03:04;;;;;;;17.42;15.60;;;;;;;22.55;60.87;100051.25;5018371;28;20486;-81
2021/06/05 04:05:33;;;;;;;16.55;14.77;;;;;;;22.57;60.17;100043.06;5018177;28;20148;-81
2021/06/05 04:08:01;;;;;;;18.42;16.42;;;;;;;22.56;60.42;100042.22;5018052;28;20049;-81
2021/06/05 04:10:28;;;;;;;18.85;16.25;;;;;;;22.56;60.53;100038.66;5018312;28;20401;-81
2021/06/05 04:12:57;;;;;;;18.52;16.63;;;;;;;22.56;60.88;100041.34;5018088;28;20060;-81
2021/06/05 04:15:28;;;;;;;18.45;16.50;;;;;;;22.56;60.71;100042.22;5011872;28;20060;-81
2021/06/05 04:18:06;;;;;;;19.30;17.15;;;;;;;22.55;61.40;100047.72;4998483;28;20066;-81
2021/06/05 04:20:36;;;;;;;19.58;16.83;;;;;;;22.59;61.18;100041.91;5014306;28;20136;-81
2021/06/05 04:23:06;;;;;;;19.40;17.40;;;;;;;22.61;61.20;100045.25;5015791;28;20076;-81
2021/06/05 04:25:34;;;;;;;21.40;17.90;;;;;;;22.63;61.02;100037.91;4998327;28;20383;-81
2021/06/05 04:28:00;;;;;;;19.75;17.73;;;;;;;22.65;61.09;100048.44;4998372;28;20422;-81
2021/06/05 04:30:29;;;;;;;22.02;17.98;;;;;;;22.65;61.45;100049.28;5015403;28;20060;-81
2021/06/05 04:32:56;;;;;;;23.20;17.38;;;;;;;22.68;61.02;100047.31;5017128;28;20088;-81
2021/06/05 04:35:24;;;;;;;20.77;17.70;;;;;;;22.68;61.26;100050.00;4997947;28;20052;-81
2021/06/05 04:37:55;;;;;;;20.83;18.33;;;;;;;22.67;61.61;100056.34;4998146;28;20061;-81
2021/06/05 04:40:23;;;;;;;19.92;17.92;;;;;;;22.67;61.41;100057.19;4998130;28;20054;-81
2021/06/05 04:42:52;;;;;;;20.60;18.40;;;;;;;22.65;61.37;100061.84;4998151;28;20058;-81
2021/06/05 04:45:20;;;;;;;19.27;17.40;;;;;;;22.64;61.47;100065.53;4997694;28;20054;-81
2021/06/05 04:47:49;;;;;;;20.38;18.35;;;;;;;22.63;61.57;100063.88;5016048;28;20096;-81
2021/06/05 04:50:24;;;;;;;25.05;19.98;;;;;;;22.60;62.45;100064.19;4997699;28;20085;-81
2021/06/05 04:52:51;;;;;;;20.45;18.23;;;;;;;22.60;61.59;100061.50;4997811;28;20060;-81
2021/06/05 04:55:19;;;;;;;25.40;18.55;;;;;;;22.57;61.74;100064.53;4997577;28;20056;-81
2021/06/05 04:57:54;;;;;;;21.33;18.98;;;;;;;22.54;62.27;100062.13;4998249;28;20081;-82
2021/06/05 05:00:31;;;;;;;21.98;19.70;;;;;;;22.51;62.93;100060.59;4997637;28;20053;-82
2021/06/05 05:03:01;;;;;;;21.70;19.50;;;;;;;22.50;62.50;100059.75;4997831;28;20057;-85
2021/06/05 05:05:28;;;;;;;22.05;19.73;;;;;;;22.49;62.06;100051.84;5010508;28;20060;-85
2021/06/05 05:07:59;;;;;;;22.55;20.02;;;;;;;22.45;62.98;100054.03;5017639;28;20057;-85
2021/06/05 05:10:33;;;;;;;23.27;20.88;;;;;;;22.43;63.35;100057.84;5017678;28;20054;-85
2021/06/05 05:13:02;;;;;;;24.83;22.20;;;;;;;22.44;63.08;100056.84;4954985;29;20138;-85
2021/06/05 05:15:30;;;;;;;31.23;26.20;;;;;;;22.47;62.72;100056.53;4955068;29;20065;-89
2021/06/05 05:21:23;;;;;;;28.02;23.40;;;;;;;22.57;63.06;100067.22;4948597;29;20454;-89
2021/06/05 05:23:51;;;;;;;33.03;26.90;;;;;;;22.61;63.21;100057.84;4919917;29;20087;-89
2021/06/05 05:26:40;;;;;;;31.30;26.35;;;;;;;22.61;63.59;100072.06;4919981;29;20059;-89
2021/06/05 05:29:06;;;;;;;33.40;25.98;;;;;;;22.69;63.05;100055.16;4920081;29;20087;-89
2021/06/05 05:31:33;;;;;;;29.38;25.20;;;;;;;22.72;63.03;100070.97;4919345;29;20075;-89
2021/06/05 05:38:13;;;;;;;29.67;25.48;;;;;;;22.88;62.62;100077.44;4995289;28;20053;-89
2021/06/05 05:41:15;;;;;;;34.35;28.48;;;;;;;22.87;63.62;100071.19;4998598;28;20049;-89
2021/06/05 05:44:06;;;;;;;32.22;26.45;;;;;;;22.93;63.27;100071.56;4997933;28;20483;-89
2021/06/05 05:46:34;;;;;;;33.15;24.52;;;;;;;23.02;62.65;100071.44;4997791;28;20042;-89
2021/06/05 05:49:16;;;;;;;30.60;25.83;;;;;;;23.02;63.47;100084.88;4997656;28;20050;-89
2021/06/05 05:51:43;;;;;;;34.75;27.83;;;;;;;23.13;62.74;100085.56;4997330;28;20056;-89
2021/06/05 05:54:23;;;;;;;32.65;27.38;;;;;;;23.14;63.46;100085.41;4998482;28;20141;-90
2021/06/05 05:57:07;;;;;;;35.35;30.15;;;;;;;23.19;62.98;100090.31;4997587;28;20059;-90
2021/06/05 05:59:34;;;;;;;32.95;28.52;;;;;;;23.28;62.81;100097.38;4997546;28;20057;-89
2021/06/05 06:02:04;;;;;;;35.90;28.02;;;;;;;23.34;63.06;100097.75;4997225;28;20049;-83
2021/06/05 06:04:32;;;;;;;33.90;27.85;;;;;;;23.38;62.53;100099.13;4997213;28;20057;-89
2021/06/05 06:06:58;;;;;;;33.75;28.35;;;;;;;23.43;62.70;100097.63;5004229;28;20127;-89
2021/06/05 06:09:33;;;;;;;34.95;28.98;;;;;;;23.42;62.91;100097.78;5034315;28;20050;-89
2021/06/05 06:12:00;;;;;;;32.30;27.92;;;;;;;23.48;62.65;100105.22;5034050;28;20140;-89
2021/06/05 06:14:27;;;;;;;30.75;26.95;;;;;;;23.50;62.20;100111.25;5016718;28;20049;-89
2021/06/05 06:17:03;;;;;;;34.50;29.08;;;;;;;23.48;62.89;100109.72;5016472;28;20053;-89
2021/06/05 06:19:30;;;;;;;32.88;29.35;;;;;;;23.51;62.32;100110.22;5016525;28;20054;-89
2021/06/05 06:21:56;;;;;;;32.05;28.63;;;;;;;23.51;62.02;100112.91;5001429;28;20058;-89
2021/06/05 06:24:29;;;;;;;30.95;27.58;;;;;;;23.48;62.71;100110.59;4996659;28;20054;-89
2021/06/05 06:26:56;;;;;;;32.03;28.67;;;;;;;23.50;62.27;100118.44;4996741;28;20065;-89
2021/06/05 06:29:30;;;;;;;32.53;28.70;;;;;;;23.49;62.33;100111.41;5014168;28;20080;-89
2021/06/05 06:32:31;;;;;;;31.95;28.35;;;;;;;23.44;62.80;100114.59;4937991;29;20057;-90
2021/06/05 06:34:58;;;;;;;33.05;29.17;;;;;;;23.50;62.13;100116.63;4943739;28;20051;-89
2021/06/05 06:37:24;;;;;;;38.00;30.90;;;;;;;23.50;62.38;100116.63;4940940;29;20063;-89
2021/06/05 06:45:53;;;;;;;33.67;28.20;;;;;;;23.55;62.25;100125.03;5027665;23;20506;-84
2021/06/05 06:48:20;;;;;;;35.40;31.08;;;;;;;23.56;62.43;100124.00;5012604;28;20506;-84
2021/06/05 06:50:51;;;;;;;36.25;30.58;;;;;;;23.56;63.00;100123.19;4996050;28;20489;-84
2021/06/05 06:53:19;;;;;;;36.88;30.90;;;;;;;23.59;62.78;100130.06;4992705;28;20052;-84
2021/06/05 06:55:47;;;;;;;33.83;30.13;;;;;;;23.60;62.82;100123.69;5003834;28;20061;-83
2021/06/05 06:58:14;;;;;;;33.58;29.90;;;;;;;23.62;62.74;100133.25;5012432;28;20053;-90
2021/06/05 07:00:44;;;;;;;36.08;30.60;;;;;;;23.64;62.77;100130.41;5032462;23;20045;-86
2021/06/05 07:03:12;;;;;;;32.33;28.85;;;;;;;23.66;62.42;100133.81;5011031;28;20404;-86
2021/06/05 07:05:39;;;;;;;33.80;29.50;;;;;;;23.67;62.59;100135.47;5011606;28;20491;-86
2021/06/05 07:08:22;;;;;;;31.67;28.25;;;;;;;23.65;62.46;100134.78;5011006;28;20053;-86
2021/06/05 07:10:52;;;;;;;32.45;28.00;;;;;;;23.68;62.46;100135.31;5010488;28;20056;-86
2021/06/05 07:13:20;;;;;;;33.85;27.80;;;;;;;23.70;62.40;100124.41;5011231;28;20400;-87
2021/06/05 07:15:47;;;;;;;36.42;30.58;;;;;;;23.70;62.25;100135.16;5011844;28;20053;-86
2021/06/05 07:18:15;;;;;;;32.72;29.17;;;;;;;23.69;61.94;100133.44;5011288;28;20104;-85
2021/06/05 07:20:45;;;;;;;35.47;29.77;;;;;;;23.68;61.93;100126.41;5010756;28;20058;-88
2021/06/05 07:23:12;;;;;;;34.00;29.80;;;;;;;23.68;62.36;100135.31;5006734;28;20079;-86
2021/06/05 07:25:38;;;;;;;35.72;31.33;;;;;;;23.68;62.45;100129.94;4992773;28;20400;-87
2021/06/05 07:28:20;;;;;;;36.95;32.92;;;;;;;23.67;62.96;100130.94;4991280;28;20058;-87
2021/06/05 07:30:47;;;;;;;32.33;28.90;;;;;;;23.74;62.75;100139.16;4992119;28;20081;-87
2021/06/05 07:33:14;;;;;;;36.95;30.13;;;;;;;23.77;62.61;100138.03;4990871;28;20563;-86
2021/06/05 07:35:41;;;;;;;34.95;29.85;;;;;;;23.81;62.95;100137.50;4991002;28;20057;-87
2021/06/05 07:38:10;;;;;;;32.95;27.95;;;;;;;23.86;62.37;100138.88;5004729;28;20451;-86
2021/06/05 07:40:37;;;;;;;31.10;27.67;;;;;;;23.89;62.40;100135.84;5011664;28;20096;-86
2021/06/05 07:43:05;;;;;;;40.92;31.08;;;;;;;23.94;62.62;100139.72;5011691;28;20492;-87
2021/06/05 07:45:32;;;;;;;37.92;29.55;;;;;;;24.02;62.98;100138.03;5010161;28;20050;-85
2021/06/05 07:47:59;;;;;;;36.75;30.08;;;;;;;24.11;63.01;100141.63;5010482;28;20061;-85
2021/06/05 07:50:26;;;;;;;34.50;29.65;;;;;;;24.18;62.85;100146.16;5011764;28;20514;-86
2021/06/05 07:52:53;;;;;;;37.30;30.45;;;;;;;24.29;62.48;100141.47;4992073;28;20097;-87
2021/06/05 07:55:20;;;;;;;33.63;29.38;;;;;;;24.37;61.94;100140.63;4994866;28;20467;-87
2021/06/05 07:57:47;;;;;;;35.42;30.60;;;;;;;24.44;61.76;100136.22;4994692;28;20105;-87
2021/06/05 08:00:19;;;;;;;35.50;30.25;;;;;;;24.46;61.64;100137.75;4995801;28;20061;-86
2021/06/05 08:02:46;;;;;;;33.72;27.73;;;;;;;24.52;61.18;100138.09;4994341;28;20057;-86
2021/06/05 08:05:13;;;;;;;35.00;29.77;;;;;;;24.53;61.86;100137.06;4995160;28;20047;-85
2021/06/05 08:07:40;;;;;;;34.03;29.98;;;;;;;24.57;61.56;100124.94;4995406;28;20563;-86
2021/06/05 08:10:10;;;;;;;33.30;29.70;;;;;;;24.63;61.74;100123.44;4994331;28;20738;-87
2021/06/05 08:12:37;;;;;;;33.30;29.40;;;;;;;24.68;61.45;100132.69;4994366;28;20054;-87
2021/06/05 08:15:11;;;;;;;36.25;29.20;;;;;;;24.73;61.37;100133.00;4994675;28;20061;-86
2021/06/05 08:17:41;;;;;;;30.85;26.35;;;;;;;24.82;61.01;100133.81;4994778;28;20134;-87
2021/06/05 08:20:11;;;;;;;31.02;25.77;;;;;;;24.89;60.68;100142.06;4997507;28;20058;-86
2021/06/05 08:22:38;;;;;;;34.40;29.05;;;;;;;24.94;60.96;100138.88;4994096;28;20054;-86
2021/06/05 08:25:07;;;;;;;34.75;28.67;;;;;;;24.97;61.17;100139.34;4993844;28;20132;-86
2021/06/05 08:27:38;;;;;;;29.98;26.75;;;;;;;25.01;60.35;100139.88;4994742;28;20463;-85
2021/06/05 08:30:09;;;;;;;35.40;26.75;;;;;;;25.03;60.05;100137.81;4995016;28;20058;-86
2021/06/05 08:32:36;;;;;;;33.50;26.27;;;;;;;25.05;60.33;100138.50;4993467;28;20058;-87
2021/06/05 08:35:52;;;;;;;31.38;26.35;;;;;;;25.04;60.41;100135.97;4994747;28;20643;-87
2021/06/05 08:38:23;;;;;;;30.85;23.92;;;;;;;25.10;60.02;100137.97;4993831;28;20050;-87
2021/06/05 08:41:12;;;;;;;28.10;24.80;;;;;;;25.13;60.19;100142.16;4993693;28;20056;-88
2021/06/05 08:43:45;;;;;;;29.17;24.92;;;;;;;25.10;60.15;100143.34;4993535;28;20054;-86
2021/06/05 08:46:20;;;;;;;29.02;25.75;;;;;;;25.09;60.24;100147.06;4995090;28;20054;-87
2021/06/05 08:48:47;;;;;;;30.83;26.98;;;;;;;25.10;60.33;100152.28;4994080;28;20161;-87
2021/06/05 08:51:24;;;;;;;29.80;25.95;;;;;;;25.09;60.38;100147.88;4993498;28;20054;-86
2021/06/05 08:53:55;;;;;;;29.65;25.60;;;;;;;25.13;59.99;100153.78;4992939;28;20104;-86
2021/06/05 08:56:27;;;;;;;30.35;25.25;;;;;;;25.15;60.24;100145.53;4994835;28;20055;-87
2021/06/05 08:58:59;;;;;;;28.03;24.63;;;;;;;25.16;59.55;100153.44;4993343;28;20057;-87
2021/06/05 09:01:42;;;;;;;30.57;27.03;;;;;;;25.19;59.70;100154.94;4998719;28;20046;-87
2021/06/05 09:04:15;;;;;;;30.55;26.92;;;;;;;25.21;59.72;100155.59;5013812;28;20046;-87
2021/06/05 09:06:50;;;;;;;28.55;25.60;;;;;;;25.21;59.29;100163.69;5013902;28;20129;-87
2021/06/05 09:09:22;;;;;;;36.58;28.00;;;;;;;25.21;58.96;100166.38;5012828;28;20108;-87
2021/06/05 09:11:48;;;;;;;40.40;31.92;;;;;;;25.18;59.29;100161.31;5013883;28;20053;-86
2021/06/05 09:14:15;;;;;;;42.30;33.28;;;;;;;25.13;58.75;100177.19;5012625;28;20058;-86
2021/06/05 09:16:47;;;;;;;36.33;30.05;;;;;;;25.03;59.28;100170.13;5013778;28;20053;-88
2021/06/05 09:19:19;;;;;;;40.20;31.77;;;;;;;24.95;59.50;100164.78;5014036;28;20119;-86
2021/06/05 09:21:56;;;;;;;39.92;31.80;;;;;;;24.89;59.41;100174.38;5012498;28;20100;-87
2021/06/05 09:24:35;;;;;;;38.78;30.95;;;;;;;24.83;59.90;100170.50;5012188;28;20510;-86
2021/06/05 09:27:17;;;;;;;42.75;31.77;;;;;;;24.88;59.98;100171.84;5013721;28;20123;-88
2021/06/05 09:29:47;;;;;;;36.35;29.98;;;;;;;24.88;60.42;100169.16;5013175;28;20126;-87
2021/06/05 09:32:17;;;;;;;38.13;31.27;;;;;;;24.92;60.11;100175.88;5011279;28;20056;-87
2021/06/05 09:35:12;;;;;;;40.70;31.42;;;;;;;24.92;60.25;100179.41;5013406;28;20855;-87
2021/06/05 09:37:54;;;;;;;41.85;31.42;;;;;;;24.97;60.59;100181.63;5011873;28;20049;-86
2021/06/05 09:40:33;;;;;;;40.63;30.70;;;;;;;25.02;59.31;100181.09;5012267;28;20045;-87
2021/06/05 09:43:09;;;;;;;40.50;31.90;;;;;;;25.01;59.91;100177.56;5012823;28;20466;-86
2021/06/05 09:45:47;;;;;;;34.67;28.63;;;;;;;25.05;60.22;100184.28;5011876;28;20104;-86
2021/06/05 09:48:39;;;;;;;37.55;29.90;;;;;;;25.11;60.11;100188.97;5013352;28;20045;-86
2021/06/05 09:51:28;;;;;;;40.58;31.00;;;;;;;25.21;59.35;100182.53;5012200;28;20053;-86
2021/06/05 09:54:04;;;;;;;39.05;30.83;;;;;;;25.32;59.85;100190.25;5011825;28;20132;-88
2021/06/05 09:56:34;;;;;;;37.13;29.92;;;;;;;25.40;59.37;100188.53;5012038;28;20069;-87
2021/06/05 09:59:15;;;;;;;39.30;30.38;;;;;;;25.45;59.08;100187.00;4996145;28;20393;-86
2021/06/05 10:02:04;;;;;;;39.40;31.15;;;;;;;25.53;58.92;100187.97;5011702;28;20046;-88
2021/06/05 10:04:35;;;;;;;37.38;28.67;;;;;;;25.59;59.22;100181.91;5012647;28;20076;-87
2021/06/05 10:07:03;;;;;;;36.58;30.13;;;;;;;25.62;58.70;100177.03;5011972;28;20058;-87
2021/06/05 10:09:34;;;;;;;38.42;29.27;;;;;;;25.65;59.02;100178.53;5012945;28;20104;-87
2021/06/05 10:12:12;;;;;;;41.80;32.30;;;;;;;25.66;58.50;100176.66;5011861;28;20084;-87
2021/06/05 10:14:42;;;;;;;44.72;32.25;;;;;;;25.70;58.99;100175.28;5011409;28;20057;-87
2021/06/05 10:17:21;;;;;;;37.50;30.58;;;;;;;25.74;59.26;100182.00;5011384;28;20050;-87
2021/06/05 10:20:01;;;;;;;44.50;32.70;;;;;;;25.83;60.54;100180.94;5012510;28;20056;-87
2021/06/05 10:22:28;;;;;;;42.63;32.67;;;;;;;25.96;59.55;100174.97;5011529;28;20411;-86
2021/06/05 10:25:03;;;;;;;43.10;32.88;;;;;;;26.07;59.64;100179.09;5013177;28;20066;-87
2021/06/05 10:27:37;;;;;;;41.90;32.63;;;;;;;26.23;58.93;100175.44;4992736;28;20046;-86
2021/06/05 10:30:19;;;;;;;38.58;30.48;;;;;;;26.39;58.41;100170.97;4993036;28;20518;-88
2021/06/05 10:32:47;;;;;;;43.08;32.42;;;;;;;26.57;58.02;100169.81;4992741;28;20049;-86
2021/06/05 10:35:26;;;;;;;42.35;31.08;;;;;;;26.72;58.10;100175.22;4991212;28;20500;-87
2021/06/05 10:38:06;;;;;;;41.88;30.50;;;;;;;26.92;58.30;100175.53;4992531;28;20058;-88
2021/06/05 10:40:33;;;;;;;36.90;30.08;;;;;;;27.12;57.83;100175.84;5003279;28;20526;-87
2021/06/05 10:43:00;;;;;;;35.38;29.13;;;;;;;27.32;57.30;100177.97;5012410;28;20072;-86
2021/06/05 10:45:33;;;;;;;35.33;29.42;;;;;;;27.54;56.92;100176.16;5012075;28;20049;-88
2021/06/05 10:48:14;;;;;;;38.75;29.50;;;;;;;27.80;55.20;100165.88;5012294;28;20088;-86
2021/06/05 10:50:52;;;;;;;40.58;30.48;;;;;;;28.07;55.04;100158.03;5012852;28;20507;-85
2021/06/05 10:53:34;;;;;;;43.17;31.67;;;;;;;28.33;55.59;100162.06;5010882;28;20061;-85
2021/06/05 10:56:19;;;;;;;39.92;30.85;;;;;;;28.54;54.12;100161.16;5005248;28;20060;-84
2021/06/05 10:58:53;;;;;;;39.45;30.02;;;;;;;28.65;53.15;100167.06;5012060;28;20049;-85
2021/06/05 11:01:29;;;;;;;38.55;30.40;;;;;;;28.61;52.53;100158.50;5012232;28;20488;-87
2021/06/05 11:04:05;;;;;;;33.92;28.05;;;;;;;28.53;52.15;100156.78;5011681;28;20495;-87
2021/06/05 11:06:47;;;;;;;43.78;33.63;;;;;;;28.33;52.48;100156.63;5012420;28;20053;-87
2021/06/05 11:09:22;;;;;;;39.70;31.30;;;;;;;28.16;52.31;100158.72;5010836;28;20058;-88
2021/06/05 11:11:51;;;;;;;40.83;33.08;;;;;;;28.00;52.07;100154.44;5012027;28;20046;-87
2021/06/05 11:14:23;;;;;;;41.15;31.45;;;;;;;27.77;52.42;100155.44;5012061;28;20050;-87
2021/06/05 11:16:59;;;;;;;44.38;32.90;;;;;;;27.58;53.12;100158.53;5011061;28;20054;-87
2021/06/05 11:19:35;;;;;;;41.38;33.00;;;;;;;27.41;52.83;100163.34;5010502;28;20104;-86
2021/06/05 11:22:09;;;;;;;44.28;33.85;;;;;;;27.27;53.53;100167.72;5011740;28;20483;-86
2021/06/05 11:24:38;;;;;;;42.90;33.28;;;;;;;27.17;53.76;100173.41;4994808;28;20109;-86
2021/06/05 11:27:10;;;;;;;47.55;34.97;;;;;;;27.02;53.86;100165.31;4991314;28;20057;-87
2021/06/05 11:29:37;;;;;;;46.92;34.72;;;;;;;26.97;54.79;100175.00;4992865;28;20054;-88
2021/06/05 11:32:25;;;;;;;45.85;32.95;;;;;;;26.84;54.75;100167.50;4996358;28;20054;-87
2021/06/05 11:34:55;;;;;;;43.75;32.75;;;;;;;26.83;54.93;100166.66;4996205;28;20492;-88
2021/06/05 11:37:48;;;;;;;45.65;33.70;;;;;;;26.73;55.52;100168.81;5011563;28;20049;-87
2021/06/05 11:40:52;;;;;;;41.33;31.95;;;;;;;26.74;55.92;100165.06;5014845;28;20116;-87
2021/06/05 11:43:28;;;;;;;46.00;33.67;;;;;;;26.86;56.24;100165.44;5014879;28;20049;-87
2021/06/05 11:46:08;;;;;;;39.95;32.05;;;;;;;27.03;56.60;100166.16;5014888;28;20169;-86
2021/06/05 11:48:43;;;;;;;43.50;33.00;;;;;;;27.25;56.09;100158.13;5014422;28;20053;-87
2021/06/05 11:51:20;;;;;;;40.17;31.27;;;;;;;27.45;55.67;100167.34;4999019;28;20050;-87